Usol'ye-Sibirskoye, Russia
Current Conditions -  °F | °C
As of 4:30 AM on Tuesday 23 Dec 2014 (Local Time) from UIII Reporting Station
Clear Clear  
Wind Chill: 10°   Ceiling: Unl
Heat Index: 10°   Visibility: 6mi
Dew Point:   Wind: 2mph
Humidity: 92%   Direction: 160°SSE
Pressure: 30.27"   Gusts: NA
Location:  52.45°N, 103.39°E
Report Text: UIII 222030Z 16001MPS CAVOK M12/M13 Q1025 NOSIG RMK QFE726/096812850350
Loading
Personal Weather Stations






























Interactive Weather Map New forecast layout! Learn more

10-Day Weather Forecast

Advertisements
Track Severe Weather on mobile